createdAt,value
2022-12-20T00:01:43.248Z,3.53
2022-12-20T00:04:11.229Z,3.63
2022-12-20T00:06:37.792Z,3.68
2022-12-20T00:09:06.774Z,3.70
2022-12-20T00:11:33.719Z,3.67
2022-12-20T00:14:00.273Z,3.67
2022-12-20T00:16:28.386Z,3.67
2022-12-20T00:19:00.226Z,3.70
2022-12-20T00:21:27.186Z,3.64
2022-12-20T00:23:54.333Z,3.77
2022-12-20T00:26:24.730Z,3.66
2022-12-20T00:28:52.464Z,3.62
2022-12-20T00:31:20.675Z,3.60
2022-12-20T00:33:49.237Z,3.73
2022-12-20T00:36:16.903Z,3.66
2022-12-20T00:38:51.084Z,3.79
2022-12-20T00:41:20.586Z,3.63
2022-12-20T00:43:47.357Z,3.72
2022-12-20T00:46:15.771Z,3.74
2022-12-20T00:48:42.638Z,3.84
2022-12-20T00:51:12.212Z,3.88
2022-12-20T00:53:39.034Z,3.91
2022-12-20T00:56:06.668Z,3.80
2022-12-20T00:58:35.491Z,3.91
2022-12-20T01:01:03.400Z,3.80
2022-12-20T01:03:30.214Z,3.80
2022-12-20T01:05:59.735Z,3.93
2022-12-20T01:08:27.564Z,3.83
2022-12-20T01:11:02.864Z,3.86
2022-12-20T01:13:30.095Z,3.74
2022-12-20T01:15:57.155Z,3.96
2022-12-20T01:18:23.680Z,4.04
2022-12-20T01:20:50.224Z,4.00
2022-12-20T01:23:16.753Z,3.89
2022-12-20T01:25:43.287Z,3.92
2022-12-20T01:28:10.162Z,3.80
2022-12-20T01:30:40.561Z,4.05
2022-12-20T01:33:07.445Z,4.02
2022-12-20T01:35:34.005Z,4.10
2022-12-20T01:38:00.521Z,3.77
2022-12-20T01:40:27.162Z,3.96
2022-12-20T01:42:53.680Z,4.09
2022-12-20T01:45:28.023Z,4.01
2022-12-20T01:47:54.625Z,4.10
2022-12-20T01:50:21.723Z,4.17
2022-12-20T01:52:48.502Z,4.16
2022-12-20T01:55:25.201Z,3.99
2022-12-20T01:58:06.441Z,3.97
2022-12-20T02:00:33.019Z,4.12
2022-12-20T02:03:02.471Z,3.95
2022-12-20T02:05:35.342Z,3.99
2022-12-20T02:08:02.154Z,4.00
2022-12-20T02:10:39.021Z,4.08
2022-12-20T02:13:10.944Z,3.99
2022-12-20T02:16:03.804Z,3.84
2022-12-20T02:18:39.148Z,3.88
2022-12-20T02:21:43.036Z,4.01
2022-12-20T02:24:23.921Z,3.89
2022-12-20T02:27:06.037Z,3.80
2022-12-20T02:29:37.301Z,3.97
2022-12-20T02:32:18.840Z,4.11
2022-12-20T02:34:45.973Z,4.11
2022-12-20T02:37:12.522Z,4.20
2022-12-20T02:39:40.576Z,4.21
2022-12-20T02:42:11.793Z,4.30
2022-12-20T02:45:00.643Z,4.22
2022-12-20T02:47:33.718Z,4.25
2022-12-20T02:50:01.119Z,4.31
2022-12-20T02:52:31.044Z,4.28
2022-12-20T02:54:58.088Z,4.14
2022-12-20T02:57:51.228Z,4.20
2022-12-20T03:00:23.215Z,4.25
2022-12-20T03:03:09.327Z,4.35
2022-12-20T03:05:43.587Z,4.39
2022-12-20T03:08:11.543Z,4.35
2022-12-20T03:10:38.371Z,4.45
2022-12-20T03:15:55.370Z,4.28
2022-12-20T03:18:22.955Z,4.39
2022-12-20T03:20:49.526Z,4.43
2022-12-20T03:23:16.131Z,4.45
2022-12-20T03:25:42.748Z,4.47
2022-12-20T03:28:13.645Z,4.39
2022-12-20T03:30:40.211Z,4.62
2022-12-20T03:33:06.810Z,4.64
2022-12-20T03:35:34.345Z,4.66
2022-12-20T03:38:00.932Z,4.75
2022-12-20T03:40:27.708Z,4.74
2022-12-20T03:42:54.571Z,4.76
2022-12-20T03:45:21.072Z,4.84
2022-12-20T03:47:48.392Z,4.86
2022-12-20T03:50:15.361Z,4.91
2022-12-20T03:52:43.265Z,4.85
2022-12-20T03:55:10.273Z,4.64
2022-12-20T03:57:42.608Z,4.73
2022-12-20T04:00:23.098Z,4.87
2022-12-20T04:02:53.372Z,4.78
2022-12-20T04:05:21.285Z,4.93
2022-12-20T04:07:47.867Z,4.86
2022-12-20T04:10:14.476Z,4.90
2022-12-20T04:12:41.918Z,4.91
2022-12-20T04:15:10.821Z,4.78
2022-12-20T04:17:39.472Z,4.84
2022-12-20T04:20:20.450Z,4.90
2022-12-20T04:22:59.544Z,4.75
2022-12-20T04:25:26.138Z,4.74
2022-12-20T04:27:53.660Z,4.79
2022-12-20T04:30:20.242Z,4.74
2022-12-20T04:32:46.885Z,4.85
2022-12-20T04:35:14.305Z,4.85
2022-12-20T04:38:04.833Z,4.70
2022-12-20T04:40:32.480Z,4.73
2022-12-20T04:43:01.341Z,4.61
2022-12-20T04:45:27.979Z,4.60
2022-12-20T04:47:55.473Z,4.64
2022-12-20T04:50:27.619Z,4.48
2022-12-20T04:53:12.928Z,4.68
2022-12-20T04:55:40.145Z,4.62
2022-12-20T04:58:08.033Z,4.52
2022-12-20T05:00:37.567Z,4.55
2022-12-20T05:03:16.873Z,4.61
2022-12-20T05:05:43.608Z,4.41
2022-12-20T05:08:10.155Z,4.45
2022-12-20T05:10:37.839Z,4.45
2022-12-20T05:13:09.152Z,4.51
2022-12-20T05:15:40.598Z,4.55
2022-12-20T05:18:07.627Z,4.59
2022-12-20T05:21:10.134Z,4.65
2022-12-20T05:23:56.257Z,4.65
2022-12-20T05:26:24.919Z,4.67
2022-12-20T05:28:52.738Z,4.71
2022-12-20T05:31:20.408Z,4.69
2022-12-20T05:33:53.564Z,4.53
2022-12-20T05:36:22.112Z,4.54
2022-12-20T05:38:50.052Z,4.69
2022-12-20T05:41:19.039Z,4.76
2022-12-20T05:43:48.749Z,4.62
2022-12-20T05:46:15.576Z,4.77
2022-12-20T05:48:53.690Z,4.75
2022-12-20T05:51:20.975Z,4.66
2022-12-20T05:54:06.790Z,4.62
2022-12-20T05:56:48.969Z,4.59
2022-12-20T05:59:19.285Z,4.62
2022-12-20T06:01:46.833Z,4.83
2022-12-20T06:04:14.451Z,4.88
2022-12-20T06:06:42.463Z,4.97
2022-12-20T06:09:10.127Z,4.93
2022-12-20T06:11:44.404Z,4.94
2022-12-20T06:14:13.664Z,5.00
2022-12-20T06:16:45.261Z,4.76
2022-12-20T06:19:17.561Z,4.83
2022-12-20T06:21:47.856Z,4.95
2022-12-20T06:24:16.597Z,5.02
2022-12-20T06:26:45.428Z,5.04
2022-12-20T06:29:14.338Z,5.04
2022-12-20T06:31:45.776Z,4.95
2022-12-20T06:34:13.355Z,4.91
2022-12-20T06:36:41.741Z,4.96
2022-12-20T06:39:14.107Z,4.80
2022-12-20T06:41:48.804Z,4.95
2022-12-20T06:44:15.595Z,5.01
2022-12-20T06:46:42.754Z,5.04
2022-12-20T06:49:10.278Z,4.99
2022-12-20T06:51:37.086Z,5.03
2022-12-20T06:54:04.604Z,5.14
2022-12-20T06:56:40.821Z,5.02
2022-12-20T06:59:09.782Z,5.07
2022-12-20T07:01:36.465Z,5.08
2022-12-20T07:04:03.214Z,5.17
2022-12-20T07:06:29.882Z,5.18
2022-12-20T07:08:56.439Z,5.26
2022-12-20T07:11:23.061Z,5.21
2022-12-20T07:13:50.389Z,5.22
2022-12-20T07:16:17.026Z,5.25
2022-12-20T07:18:43.757Z,5.28
2022-12-20T07:21:10.365Z,5.32
2022-12-20T07:23:37.113Z,5.33
2022-12-20T07:26:04.074Z,5.38
2022-12-20T07:28:30.717Z,5.33
2022-12-20T07:31:01.563Z,5.30
2022-12-20T07:33:28.416Z,5.30
2022-12-20T07:36:09.721Z,5.37
2022-12-20T07:38:36.711Z,5.47
2022-12-20T07:41:11.631Z,5.47
2022-12-20T07:43:38.206Z,5.43
2022-12-20T07:46:05.839Z,5.29
2022-12-20T07:48:32.721Z,5.41
2022-12-20T07:51:02.906Z,5.43
2022-12-20T07:53:31.952Z,5.35
2022-12-20T07:56:01.232Z,5.20
2022-12-20T07:58:28.718Z,5.13
2022-12-20T08:00:56.599Z,5.27
2022-12-20T08:03:44.810Z,5.32
2022-12-20T08:06:12.616Z,5.38
2022-12-20T08:08:42.544Z,5.33
2022-12-20T08:11:09.977Z,5.45
2022-12-20T08:13:42.514Z,5.45
2022-12-20T08:16:12.498Z,5.45
2022-12-20T08:18:39.044Z,5.39
2022-12-20T08:21:05.697Z,5.43
2022-12-20T08:23:32.733Z,5.35
2022-12-20T08:26:02.596Z,5.45
2022-12-20T08:28:29.141Z,5.53
2022-12-20T08:31:01.744Z,5.47
2022-12-20T08:33:28.442Z,5.49
2022-12-20T08:36:03.282Z,5.47
2022-12-20T08:38:31.013Z,5.45
2022-12-20T08:41:05.993Z,5.32
2022-12-20T08:43:33.674Z,5.44
2022-12-20T08:46:00.817Z,5.57
2022-12-20T08:48:27.748Z,5.50
2022-12-20T08:50:56.436Z,5.45
2022-12-20T08:53:23.310Z,5.49
2022-12-20T08:55:50.300Z,5.59
2022-12-20T08:58:16.961Z,5.62
2022-12-20T09:00:43.495Z,5.73
2022-12-20T09:03:11.887Z,5.75
2022-12-20T09:05:45.292Z,5.85
2022-12-20T09:08:11.865Z,5.92
2022-12-20T09:10:38.385Z,5.88
2022-12-20T09:13:04.935Z,6.00
2022-12-20T09:15:31.869Z,6.11
2022-12-20T09:18:00.228Z,6.20
2022-12-20T09:20:27.039Z,6.24
2022-12-20T09:22:53.648Z,6.16
2022-12-20T09:25:20.396Z,6.14
2022-12-20T09:27:46.953Z,6.26
2022-12-20T09:30:13.662Z,6.40
2022-12-20T09:32:40.368Z,6.41
2022-12-20T09:35:07.200Z,6.63
2022-12-20T09:37:33.773Z,6.65
2022-12-20T09:40:00.378Z,6.76
2022-12-20T09:42:28.244Z,6.93
2022-12-20T09:45:08.611Z,6.93
2022-12-20T09:47:36.550Z,6.90
2022-12-20T09:50:04.751Z,7.08
2022-12-20T09:52:43.084Z,7.09
2022-12-20T09:55:32.300Z,7.15
2022-12-20T09:58:15.229Z,7.39
2022-12-20T10:00:53.213Z,7.62
2022-12-20T10:03:24.297Z,7.76
2022-12-20T10:05:52.070Z,7.70
2022-12-20T10:08:45.195Z,7.84
2022-12-20T10:11:36.597Z,7.77
2022-12-20T10:14:26.315Z,7.63
2022-12-20T10:17:00.830Z,7.48
2022-12-20T10:19:50.614Z,7.22
2022-12-20T10:22:17.567Z,7.01
2022-12-20T10:24:51.570Z,7.06
2022-12-20T10:27:20.015Z,7.23
2022-12-20T10:29:49.344Z,7.25
2022-12-20T10:32:22.210Z,7.09
2022-12-20T10:35:00.198Z,7.20
2022-12-20T10:37:26.834Z,7.36
2022-12-20T10:39:53.371Z,7.59
2022-12-20T10:42:37.355Z,7.64
2022-12-20T10:45:04.834Z,7.72
2022-12-20T10:47:45.151Z,7.75
2022-12-20T10:50:20.372Z,7.90
2022-12-20T10:53:11.252Z,7.90
2022-12-20T10:55:42.318Z,8.00
2022-12-20T10:58:21.364Z,7.94
2022-12-20T11:00:49.575Z,8.11
2022-12-20T11:03:21.542Z,8.23
2022-12-20T11:06:00.208Z,8.16
2022-12-20T11:08:51.006Z,8.13
2022-12-20T11:11:22.887Z,8.12
2022-12-20T11:13:51.459Z,7.88
2022-12-20T11:16:26.210Z,7.93
2022-12-20T11:19:06.051Z,7.99
2022-12-20T11:21:47.846Z,8.03
2022-12-20T11:24:20.325Z,8.14
2022-12-20T11:26:52.872Z,8.14
2022-12-20T11:29:19.307Z,8.10
2022-12-20T11:32:16.561Z,7.97
2022-12-20T11:34:49.348Z,8.10
2022-12-20T11:37:24.535Z,8.00
2022-12-20T11:40:05.318Z,8.09
2022-12-20T11:42:50.960Z,8.19
2022-12-20T11:45:39.323Z,8.36
2022-12-20T11:48:52.874Z,8.14
2022-12-20T11:51:26.664Z,8.24
2022-12-20T11:54:01.862Z,8.16
2022-12-20T11:56:44.670Z,8.20
2022-12-20T11:59:20.401Z,8.01
2022-12-20T12:01:52.387Z,8.16
2022-12-20T12:04:26.450Z,8.09
2022-12-20T12:07:16.078Z,8.03
2022-12-20T12:09:52.825Z,8.09
2022-12-20T12:12:33.248Z,8.30
2022-12-20T12:15:16.823Z,8.15
2022-12-20T12:17:50.785Z,8.24
2022-12-20T12:20:35.338Z,8.28
2022-12-20T12:23:19.241Z,8.31
2022-12-20T12:25:45.888Z,8.22
2022-12-20T12:28:14.841Z,8.36
2022-12-20T12:30:47.127Z,8.09
2022-12-20T12:33:25.681Z,8.34
2022-12-20T12:36:09.531Z,8.27
2022-12-20T12:39:01.873Z,8.45
2022-12-20T12:41:43.496Z,8.28
2022-12-20T12:44:19.023Z,8.43
2022-12-20T12:46:48.339Z,8.41
2022-12-20T12:49:22.811Z,8.43
2022-12-20T12:51:52.482Z,8.34
2022-12-20T12:54:26.513Z,8.46
2022-12-20T12:56:55.643Z,8.44
2022-12-20T12:59:43.924Z,8.43
2022-12-20T13:02:13.540Z,8.47
2022-12-20T13:05:12.715Z,8.28
2022-12-20T13:07:43.626Z,8.40
2022-12-20T13:10:10.126Z,8.59
2022-12-20T13:12:36.572Z,8.53
2022-12-20T13:15:23.019Z,8.33
2022-12-20T13:17:50.709Z,8.30
2022-12-20T13:20:22.973Z,8.24
2022-12-20T13:23:07.833Z,8.30
2022-12-20T13:25:42.803Z,8.19
2022-12-20T13:28:17.017Z,8.09
2022-12-20T13:30:45.004Z,8.24
2022-12-20T13:33:25.726Z,8.24
2022-12-20T13:36:02.407Z,8.14
2022-12-20T13:39:01.151Z,8.08
2022-12-20T13:41:36.822Z,8.24
2022-12-20T13:44:16.996Z,8.14
2022-12-20T13:46:54.408Z,8.14
2022-12-20T13:49:26.260Z,8.03
2022-12-20T13:52:11.055Z,8.09
2022-12-20T13:54:42.370Z,8.11
2022-12-20T13:57:11.632Z,8.07
2022-12-20T13:59:38.139Z,7.92
2022-12-20T14:02:11.672Z,7.90
2022-12-20T14:04:46.188Z,7.90
2022-12-20T14:07:15.123Z,7.94
2022-12-20T14:09:45.587Z,7.92
2022-12-20T14:12:17.923Z,7.91
2022-12-20T14:14:50.124Z,7.94
2022-12-20T14:17:33.202Z,7.90
2022-12-20T14:20:16.766Z,7.95
2022-12-20T14:23:06.011Z,7.83
2022-12-20T14:25:38.852Z,7.93
2022-12-20T14:28:06.408Z,7.79
2022-12-20T14:30:36.758Z,7.93
2022-12-20T14:33:03.394Z,7.90
2022-12-20T14:35:30.018Z,7.94
2022-12-20T14:38:00.028Z,7.85
2022-12-20T14:40:27.454Z,7.85
2022-12-20T14:42:54.504Z,7.77
2022-12-20T14:45:25.622Z,7.85
2022-12-20T14:47:59.718Z,7.47
2022-12-20T14:50:34.945Z,7.56
2022-12-20T14:53:01.880Z,7.64
2022-12-20T14:55:37.037Z,7.67
2022-12-20T14:58:27.182Z,7.50
2022-12-20T15:01:24.400Z,7.29
2022-12-20T15:03:53.689Z,7.41
2022-12-20T15:06:45.786Z,7.41
2022-12-20T15:09:12.367Z,7.54
2022-12-20T15:11:39.086Z,7.49
2022-12-20T15:14:18.716Z,7.25
2022-12-20T15:16:49.004Z,7.40
2022-12-20T15:19:15.482Z,7.44
2022-12-20T15:21:43.009Z,7.53
2022-12-20T15:24:13.560Z,7.47
2022-12-20T15:26:40.608Z,7.25
2022-12-20T15:29:07.507Z,7.10
2022-12-20T15:31:35.352Z,7.07
2022-12-20T15:34:14.374Z,7.23
2022-12-20T15:36:41.190Z,7.35
2022-12-20T15:39:13.316Z,7.10
2022-12-20T15:41:43.806Z,7.21
2022-12-20T15:44:19.286Z,7.22
2022-12-20T15:46:45.887Z,7.14
2022-12-20T15:49:23.836Z,7.21
2022-12-20T15:51:52.307Z,7.22
2022-12-20T15:54:24.132Z,7.23
2022-12-20T15:56:51.392Z,7.18
2022-12-20T15:59:57.543Z,7.17
2022-12-20T16:02:16.078Z,7.15
2022-12-20T16:04:42.695Z,7.06
2022-12-20T16:07:12.611Z,7.03
2022-12-20T16:09:39.727Z,7.04
2022-12-20T16:12:14.593Z,7.02
2022-12-20T16:14:41.096Z,6.92
2022-12-20T16:17:13.989Z,6.85
2022-12-20T16:19:40.930Z,6.89
2022-12-20T16:22:15.281Z,6.88
2022-12-20T16:24:41.903Z,6.65
2022-12-20T16:27:08.473Z,6.66
2022-12-20T16:29:34.974Z,6.77
2022-12-20T16:32:01.620Z,6.79
2022-12-20T16:34:28.164Z,6.77
2022-12-20T16:36:54.724Z,6.77
2022-12-20T16:39:22.399Z,6.75
2022-12-20T16:41:48.957Z,6.62
2022-12-20T16:44:16.338Z,6.73
2022-12-20T16:46:43.303Z,6.52
2022-12-20T16:49:17.843Z,6.53
2022-12-20T16:51:48.089Z,6.50
2022-12-20T16:54:21.064Z,6.55
2022-12-20T16:56:51.973Z,6.51
2022-12-20T16:59:21.181Z,6.43
2022-12-20T17:01:50.021Z,6.44
2022-12-20T17:04:18.417Z,6.50
2022-12-20T17:06:45.353Z,6.55
2022-12-20T17:11:55.970Z,6.44
2022-12-20T17:14:22.475Z,6.42
2022-12-20T17:16:49.575Z,6.33
2022-12-20T17:19:16.352Z,6.43
2022-12-20T17:24:30.135Z,6.42
2022-12-20T17:26:56.699Z,6.45
2022-12-20T17:29:23.190Z,6.43
2022-12-20T17:31:50.018Z,6.60
2022-12-20T17:34:25.018Z,6.48
2022-12-20T17:36:54.296Z,6.54
2022-12-20T17:39:21.289Z,6.61
2022-12-20T17:41:49.314Z,6.60
2022-12-20T17:44:20.479Z,6.63
2022-12-20T17:46:47.248Z,6.25
2022-12-20T17:49:14.090Z,6.61
2022-12-20T17:51:40.624Z,6.60
2022-12-20T17:54:16.591Z,6.72
2022-12-20T17:56:43.123Z,6.74
2022-12-20T17:59:10.413Z,6.81
2022-12-20T18:01:37.477Z,6.70
2022-12-20T18:04:09.467Z,6.76
2022-12-20T18:06:39.908Z,6.85
2022-12-20T18:09:13.063Z,6.97
2022-12-20T18:11:39.648Z,6.99
2022-12-20T18:14:06.199Z,6.89
2022-12-20T18:16:35.079Z,7.12
2022-12-20T18:19:02.137Z,7.18
2022-12-20T18:21:28.794Z,7.22
2022-12-20T18:23:55.485Z,6.94
2022-12-20T18:26:25.360Z,6.97
2022-12-20T18:28:55.388Z,6.97
2022-12-20T18:31:25.128Z,7.00
2022-12-20T18:33:57.521Z,7.07
2022-12-20T18:36:29.908Z,7.10
2022-12-20T18:38:58.199Z,6.93
2022-12-20T18:41:28.014Z,6.95
2022-12-20T18:43:58.565Z,6.95
2022-12-20T18:46:25.371Z,6.99
2022-12-20T18:48:54.405Z,6.99
2022-12-20T18:51:23.054Z,6.86
2022-12-20T18:53:51.467Z,6.89
2022-12-20T18:56:20.427Z,6.88
2022-12-20T18:58:47.844Z,6.93
2022-12-20T19:01:19.978Z,6.82
2022-12-20T19:03:47.626Z,6.80
2022-12-20T19:06:14.670Z,6.83
2022-12-20T19:08:41.725Z,6.81
2022-12-20T19:11:10.608Z,6.88
2022-12-20T19:13:37.998Z,6.88
2022-12-20T19:16:05.791Z,6.94
2022-12-20T19:18:32.619Z,6.91
2022-12-20T19:21:06.339Z,6.83
2022-12-20T19:23:34.175Z,6.79
2022-12-20T19:26:05.348Z,6.89
2022-12-20T19:28:32.860Z,6.82
2022-12-20T19:31:06.319Z,6.80
2022-12-20T19:33:33.290Z,6.69
2022-12-20T19:35:59.840Z,6.64
2022-12-20T19:38:26.378Z,6.51
2022-12-20T19:40:53.866Z,6.36
2022-12-20T19:43:20.771Z,6.39
2022-12-20T19:45:47.362Z,6.54
2022-12-20T19:48:14.477Z,6.55
2022-12-20T19:50:40.969Z,6.29
2022-12-20T19:53:07.491Z,6.13
2022-12-20T19:55:34.010Z,6.36
2022-12-20T19:58:00.704Z,6.35
2022-12-20T20:00:27.481Z,6.36
2022-12-20T20:02:54.150Z,6.25
2022-12-20T20:05:20.839Z,6.36
2022-12-20T20:07:47.378Z,6.35
2022-12-20T20:10:13.856Z,6.27
2022-12-20T20:12:40.348Z,6.13
2022-12-20T20:15:07.801Z,6.12
2022-12-20T20:17:35.798Z,6.24
2022-12-20T20:20:02.310Z,6.14
2022-12-20T20:22:28.808Z,6.18
2022-12-20T20:24:55.326Z,6.14
2022-12-20T20:27:21.948Z,6.29
2022-12-20T20:29:50.035Z,6.38
2022-12-20T20:32:16.623Z,6.37
2022-12-20T20:34:44.054Z,6.39
2022-12-20T20:37:10.651Z,6.33
2022-12-20T20:39:37.180Z,6.25
2022-12-20T20:42:03.719Z,6.23
2022-12-20T20:44:30.227Z,6.26
2022-12-20T20:46:56.826Z,6.28
2022-12-20T20:49:23.469Z,6.18
2022-12-20T20:51:50.085Z,6.06
2022-12-20T20:54:16.634Z,6.14
2022-12-20T20:56:43.180Z,6.14
2022-12-20T20:59:15.340Z,6.06
2022-12-20T21:01:44.916Z,6.03
2022-12-20T21:04:11.609Z,6.01
2022-12-20T21:06:41.727Z,6.11
2022-12-20T21:09:09.201Z,6.16
2022-12-20T21:11:37.036Z,6.19
2022-12-20T21:14:03.883Z,6.11
2022-12-20T21:16:30.410Z,6.05
2022-12-20T21:18:58.145Z,6.14
2022-12-20T21:21:25.681Z,6.00
2022-12-20T21:23:52.883Z,6.01
2022-12-20T21:26:21.029Z,6.04
2022-12-20T21:28:47.663Z,6.12
2022-12-20T21:31:17.354Z,6.04
2022-12-20T21:33:46.067Z,6.18
2022-12-20T21:36:17.380Z,6.18
2022-12-20T21:38:54.869Z,6.16
2022-12-20T21:41:25.936Z,6.11
2022-12-20T21:43:54.829Z,5.81
2022-12-20T21:46:21.663Z,6.01
2022-12-20T21:48:48.268Z,6.10
2022-12-20T21:51:17.402Z,6.16
2022-12-20T21:53:49.438Z,6.08
2022-12-20T21:56:16.574Z,6.08
2022-12-20T21:58:43.499Z,6.12
2022-12-20T22:01:11.624Z,6.11
2022-12-20T22:03:38.365Z,6.12
2022-12-20T22:06:05.373Z,6.13
2022-12-20T22:08:32.223Z,6.10
2022-12-20T22:11:06.607Z,6.18
2022-12-20T22:13:39.090Z,6.10
2022-12-20T22:16:15.964Z,6.20
2022-12-20T22:18:43.389Z,6.14
2022-12-20T22:21:12.235Z,6.10
2022-12-20T22:23:39.402Z,6.12
2022-12-20T22:26:09.494Z,6.10
2022-12-20T22:28:37.228Z,6.28
2022-12-20T22:31:11.095Z,6.12
2022-12-20T22:33:38.170Z,6.06
2022-12-20T22:36:05.684Z,6.14
2022-12-20T22:38:32.515Z,6.11
2022-12-20T22:41:10.351Z,6.24
2022-12-20T22:43:37.939Z,6.03
2022-12-20T22:46:05.031Z,6.23
2022-12-20T22:48:31.758Z,6.17
2022-12-20T22:50:59.684Z,6.08
2022-12-20T22:53:26.763Z,6.20
2022-12-20T22:55:53.409Z,6.24
2022-12-20T22:58:19.944Z,6.10
2022-12-20T23:00:47.588Z,6.10
2022-12-20T23:03:14.717Z,6.20
2022-12-20T23:05:41.561Z,6.25
2022-12-20T23:08:08.065Z,6.29
2022-12-20T23:10:53.221Z,6.13
2022-12-20T23:13:38.545Z,6.08
2022-12-20T23:16:05.120Z,6.10
2022-12-20T23:18:31.724Z,6.20
2022-12-20T23:21:16.800Z,6.06
2022-12-20T23:23:43.372Z,6.05
2022-12-20T23:26:11.362Z,6.04
2022-12-20T23:28:38.222Z,6.00
2022-12-20T23:31:05.829Z,6.07
2022-12-20T23:33:32.603Z,6.02
2022-12-20T23:35:59.873Z,6.02
2022-12-20T23:38:26.804Z,6.00
2022-12-20T23:40:53.406Z,5.99
2022-12-20T23:43:19.981Z,5.75
2022-12-20T23:45:46.524Z,5.78
2022-12-20T23:48:13.087Z,5.74
2022-12-20T23:50:39.597Z,5.87
2022-12-20T23:53:06.210Z,5.81
2022-12-20T23:55:32.783Z,5.45
2022-12-20T23:57:59.315Z,5.48
